Upstream stations:
Downstream station:
SHEF ID: CTSO2 Bird Ck at State Highway 266 nea
STATION TYPE:
Regulating: Stage = 26.00, Flow = 19355
STAGE STAGE(2) RIV-FLOW WTR-TEMP DIS-OXY PH CONDUCT BAT-LOAD
ft ft cfs F mg/l su umho/cm volt
Ccp-Rev Ccp-Rev Ccp-Rev Ccp-Rev Ccp-Rev Ccp-Rev Ccp-Rev Ccp-Rev
(US/Central)
04/04 00:00 4.95 4.98 408 60.80 ---- 7.96 436 12.65
04/04 01:00 4.96 4.96 412 60.51 ---- 7.94 437 12.63
04/04 02:00 4.96 4.96 412 60.21 ---- 7.92 437 12.60
04/04 03:00 4.95 4.97 408 59.88 ---- 7.90 437 12.57
04/04 04:00 4.93 4.96 401 59.56 ---- 7.88 438 12.56
04/04 05:00 4.92 4.96 397 59.23 ---- 7.86 438 12.54
04/04 06:00 4.92 4.95 397 58.95 ---- 7.84 437 12.53
04/04 07:00 4.91 4.95 393 58.69 ---- 7.84 436 12.51
04/04 08:00 4.91 4.93 393 58.57 ---- 7.83 435 12.59
04/04 09:00 4.90 4.95 390 58.71 ---- 7.85 434 13.76
04/04 10:00 4.91 4.94 393 58.98 ---- 7.86 432 13.61
04/04 11:00 4.91 4.94 393 59.36 ---- 7.88 430 13.36
04/04 12:00 4.90 4.95 390 59.74 ---- 7.91 427 13.24
04/04 13:00 4.95 4.98 408 60.24 ---- 7.94 425 13.17
04/04 14:00 4.94 4.98 404 60.66 ---- 7.96 424 13.16
04/04 15:00 4.94 4.98 404 61.21 ---- 7.99 424 13.01
04/04 16:00 4.94 4.97 404 61.74 ---- 8.01 423 12.99
04/04 17:00 4.94 4.95 404 62.19 ---- 8.03 426 12.98
04/04 18:00 4.93 4.96 401 62.58 ---- 8.03 429 12.96
04/04 19:00 4.93 4.94 401 62.92 ---- 8.02 433 12.96
04/04 20:00 4.90 4.94 390 63.19 ---- 8.01 436 12.86
04/04 21:00 4.91 4.94 393 63.37 ---- 7.99 439 12.71
04/04 22:00 4.88 4.95 383 63.41 ---- 7.99 439 12.68
04/04 23:00 ---- ---- ---- ---- ---- ---- ---- ----